createdAt,value
2023-02-01T00:02:03.395Z,4.40
2023-02-01T00:04:32.118Z,4.40
2023-02-01T00:07:01.928Z,4.30
2023-02-01T00:09:30.724Z,4.30
2023-02-01T00:12:02.991Z,4.20
2023-02-01T00:14:31.650Z,4.20
2023-02-01T00:17:00.281Z,4.20
2023-02-01T00:19:28.989Z,4.20
2023-02-01T00:21:57.560Z,4.20
2023-02-01T00:24:26.179Z,4.20
2023-02-01T00:26:54.823Z,4.20
2023-02-01T00:29:25.224Z,4.20
2023-02-01T00:31:54.290Z,4.30
2023-02-01T00:34:22.997Z,4.30
2023-02-01T00:36:54.455Z,4.40
2023-02-01T00:39:24.555Z,4.40
2023-02-01T00:41:53.498Z,4.40
2023-02-01T00:44:24.542Z,4.40
2023-02-01T00:46:54.074Z,4.40
2023-02-01T00:49:23.063Z,4.40
2023-02-01T00:51:51.712Z,4.40
2023-02-01T00:54:20.262Z,4.40
2023-02-01T00:56:48.970Z,4.50
2023-02-01T00:59:18.051Z,4.50
2023-02-01T01:01:48.343Z,4.60
2023-02-01T01:04:17.656Z,4.60
2023-02-01T01:06:46.368Z,4.60
2023-02-01T01:09:40.078Z,4.50
2023-02-01T01:12:08.600Z,4.60
2023-02-01T01:14:37.137Z,4.60
2023-02-01T01:17:07.768Z,4.70
2023-02-01T01:19:36.396Z,4.70
2023-02-01T01:22:05.296Z,4.70
2023-02-01T01:24:34.088Z,4.60
2023-02-01T01:27:02.842Z,4.60
2023-02-01T01:29:31.648Z,4.60
2023-02-01T01:32:00.561Z,4.60
2023-02-01T01:34:30.881Z,4.60
2023-02-01T01:37:00.252Z,4.50
2023-02-01T01:39:29.024Z,4.40
2023-02-01T01:41:58.428Z,4.40
2023-02-01T01:44:58.822Z,4.30
2023-02-01T01:47:31.722Z,4.40
2023-02-01T01:50:02.716Z,4.40
2023-02-01T01:52:31.729Z,4.40
2023-02-01T01:55:01.612Z,4.40
2023-02-01T01:57:34.643Z,4.40
2023-02-01T02:00:08.288Z,4.40
2023-02-01T02:02:44.868Z,4.40
2023-02-01T02:05:15.950Z,4.50
2023-02-01T02:07:48.492Z,4.50
2023-02-01T02:10:19.066Z,4.50
2023-02-01T02:12:50.365Z,4.50
2023-02-01T02:15:19.855Z,4.50
2023-02-01T02:17:57.288Z,4.50
2023-02-01T02:20:58.813Z,4.60
2023-02-01T02:23:55.979Z,4.60
2023-02-01T02:26:49.253Z,4.60
2023-02-01T02:29:58.368Z,4.60
2023-02-01T02:32:58.979Z,4.60
2023-02-01T02:35:35.909Z,4.70
2023-02-01T02:38:14.500Z,4.70
2023-02-01T02:40:50.841Z,4.70
2023-02-01T02:43:42.122Z,4.70
2023-02-01T02:46:36.178Z,4.70
2023-02-01T02:49:11.634Z,4.70
2023-02-01T02:52:03.119Z,4.80
2023-02-01T02:54:51.911Z,4.80
2023-02-01T02:57:44.287Z,4.80
2023-02-01T03:00:33.918Z,4.80
2023-02-01T03:03:20.684Z,4.80
2023-02-01T03:05:51.943Z,4.80
2023-02-01T03:08:26.597Z,4.90
2023-02-01T03:11:00.016Z,4.80
2023-02-01T03:13:34.018Z,4.90
2023-02-01T03:16:09.757Z,4.80
2023-02-01T03:18:44.512Z,4.80
2023-02-01T03:21:18.377Z,4.80
2023-02-01T03:23:50.671Z,4.70
2023-02-01T03:26:22.139Z,4.70
2023-02-01T03:28:57.815Z,4.70
2023-02-01T03:31:29.605Z,4.80
2023-02-01T03:33:58.891Z,4.70
2023-02-01T03:36:32.011Z,4.70
2023-02-01T03:39:06.827Z,4.70
2023-02-01T03:41:40.928Z,4.70
2023-02-01T03:44:15.855Z,4.70
2023-02-01T03:46:49.912Z,4.70
2023-02-01T03:49:23.921Z,4.70
2023-02-01T03:51:54.641Z,4.80
2023-02-01T03:54:26.300Z,4.80
2023-02-01T03:56:58.379Z,4.80
2023-02-01T03:59:27.937Z,4.80
2023-02-01T04:01:56.629Z,4.80
2023-02-01T04:04:25.289Z,4.80
2023-02-01T04:06:56.164Z,4.80
2023-02-01T04:09:26.451Z,4.80
2023-02-01T04:11:55.056Z,4.80
2023-02-01T04:14:23.603Z,4.80
2023-02-01T04:16:52.517Z,4.80
2023-02-01T04:19:21.115Z,4.80
2023-02-01T04:21:49.636Z,4.80
2023-02-01T04:24:18.354Z,4.80
2023-02-01T04:26:48.625Z,4.80
2023-02-01T04:29:17.429Z,4.70
2023-02-01T04:31:47.459Z,4.70
2023-02-01T04:34:16.064Z,4.60
2023-02-01T04:36:47.214Z,4.60
2023-02-01T04:39:16.001Z,4.60
2023-02-01T04:41:44.551Z,4.50
2023-02-01T04:44:16.828Z,4.50
2023-02-01T04:46:45.892Z,4.50
2023-02-01T04:49:15.891Z,4.40
2023-02-01T04:51:47.463Z,4.40
2023-02-01T04:54:16.294Z,4.40
2023-02-01T04:56:45.563Z,4.40
2023-02-01T04:59:16.127Z,4.40
2023-02-01T05:01:44.708Z,4.40
2023-02-01T05:04:13.399Z,4.50
2023-02-01T05:06:42.185Z,4.40
2023-02-01T05:09:10.826Z,4.50
2023-02-01T05:11:56.903Z,4.50
2023-02-01T05:14:26.941Z,4.40
2023-02-01T05:16:55.792Z,4.40
2023-02-01T05:19:24.453Z,4.40
2023-02-01T05:21:53.055Z,4.40
2023-02-01T05:24:21.906Z,4.40
2023-02-01T05:26:51.211Z,4.50
2023-02-01T05:29:20.333Z,4.50
2023-02-01T05:31:50.748Z,4.40
2023-02-01T05:34:19.685Z,4.40
2023-02-01T05:36:48.436Z,4.40
2023-02-01T05:39:17.252Z,4.40
2023-02-01T05:41:46.007Z,4.40
2023-02-01T05:44:14.664Z,4.40
2023-02-01T05:46:43.350Z,4.40
2023-02-01T05:49:13.446Z,4.30
2023-02-01T05:51:42.165Z,4.30
2023-02-01T05:54:11.617Z,4.30
2023-02-01T05:56:41.860Z,4.30
2023-02-01T05:59:12.086Z,4.30
2023-02-01T06:01:40.607Z,4.20
2023-02-01T06:04:09.206Z,4.20
2023-02-01T06:06:39.339Z,4.20
2023-02-01T06:09:08.410Z,4.20
2023-02-01T06:11:37.168Z,4.20
2023-02-01T06:14:05.908Z,4.20
2023-02-01T06:16:34.575Z,4.20
2023-02-01T06:19:03.343Z,4.10
2023-02-01T06:21:31.984Z,4.20
2023-02-01T06:24:02.110Z,4.20
2023-02-01T06:26:30.813Z,4.20
2023-02-01T06:28:59.366Z,4.20
2023-02-01T06:31:28.240Z,4.20
2023-02-01T06:33:56.937Z,4.20
2023-02-01T06:36:25.581Z,4.20
2023-02-01T06:38:54.502Z,4.20
2023-02-01T06:41:24.882Z,4.20
2023-02-01T06:43:53.830Z,4.20
2023-02-01T06:46:22.534Z,4.20
2023-02-01T06:48:52.143Z,4.30
2023-02-01T06:51:23.419Z,4.30
2023-02-01T06:53:52.438Z,4.30
2023-02-01T06:56:21.803Z,4.30
2023-02-01T06:58:51.722Z,4.40
2023-02-01T07:01:20.802Z,4.30
2023-02-01T07:03:51.967Z,4.30
2023-02-01T07:06:21.428Z,4.40
2023-02-01T07:08:50.129Z,4.40
2023-02-01T07:11:20.584Z,4.40
2023-02-01T07:13:49.277Z,4.40
2023-02-01T07:16:20.866Z,4.40
2023-02-01T07:18:50.232Z,4.50
2023-02-01T07:21:19.150Z,4.50
2023-02-01T07:23:49.390Z,4.50
2023-02-01T07:26:18.605Z,4.50
2023-02-01T07:28:47.870Z,4.50
2023-02-01T07:31:22.094Z,4.50
2023-02-01T07:33:52.614Z,4.50
2023-02-01T07:36:22.027Z,4.60
2023-02-01T07:38:51.876Z,4.60
2023-02-01T07:41:20.460Z,4.60
2023-02-01T07:43:49.342Z,4.50
2023-02-01T07:46:21.884Z,4.60
2023-02-01T07:48:50.607Z,4.60
2023-02-01T07:51:19.653Z,4.60
2023-02-01T07:53:48.258Z,4.70
2023-02-01T07:56:18.677Z,4.70
2023-02-01T07:58:50.555Z,4.60
2023-02-01T08:01:21.459Z,4.60
2023-02-01T08:03:51.423Z,4.60
2023-02-01T08:06:21.641Z,4.50
2023-02-01T08:08:50.799Z,4.70
2023-02-01T08:11:20.268Z,4.80
2023-02-01T08:13:49.465Z,5.00
2023-02-01T08:16:21.068Z,5.00
2023-02-01T08:18:49.970Z,5.00
2023-02-01T08:21:21.156Z,5.10
2023-02-01T08:23:50.261Z,5.20
2023-02-01T08:26:22.025Z,5.40
2023-02-01T08:28:52.772Z,5.50
2023-02-01T08:31:33.710Z,5.70
2023-02-01T08:34:05.294Z,5.90
2023-02-01T08:36:34.366Z,5.90
2023-02-01T08:39:06.887Z,6.00
2023-02-01T08:41:35.710Z,6.00
2023-02-01T08:44:04.518Z,6.10
2023-02-01T08:46:34.705Z,6.10
2023-02-01T08:49:03.317Z,6.20
2023-02-01T08:51:32.008Z,6.20
2023-02-01T08:54:06.782Z,6.30
2023-02-01T08:56:35.609Z,6.30
2023-02-01T08:59:04.353Z,6.40
2023-02-01T09:01:34.415Z,6.50
2023-02-01T09:04:03.136Z,6.50
2023-02-01T09:06:31.673Z,6.40
2023-02-01T09:09:00.592Z,6.40
2023-02-01T09:11:32.914Z,6.30
2023-02-01T09:14:01.595Z,6.30
2023-02-01T09:16:30.500Z,6.40
2023-02-01T09:19:25.788Z,6.40
2023-02-01T09:21:49.217Z,6.50
2023-02-01T09:24:18.127Z,6.50
2023-02-01T09:26:46.929Z,6.60
2023-02-01T09:29:15.661Z,6.60
2023-02-01T09:31:57.430Z,6.60
2023-02-01T09:34:33.625Z,6.60
2023-02-01T09:37:03.075Z,6.60
2023-02-01T09:39:32.523Z,6.50
2023-02-01T09:42:10.721Z,6.50
2023-02-01T09:44:59.029Z,6.40
2023-02-01T09:47:29.182Z,6.40
2023-02-01T09:50:03.356Z,6.50
2023-02-01T09:52:37.791Z,6.60
2023-02-01T09:55:10.018Z,6.60
2023-02-01T09:57:49.526Z,6.70
2023-02-01T10:00:23.254Z,6.90
2023-02-01T10:02:53.580Z,7.00
2023-02-01T10:05:46.552Z,7.10
2023-02-01T10:08:27.461Z,7.00
2023-02-01T10:11:32.230Z,7.00
2023-02-01T10:14:12.931Z,6.90
2023-02-01T10:16:49.385Z,6.80
2023-02-01T10:19:32.068Z,6.70
2023-02-01T10:22:21.567Z,6.70
2023-02-01T10:24:58.454Z,6.80
2023-02-01T10:27:37.003Z,6.80
2023-02-01T10:30:18.407Z,6.90
2023-02-01T10:32:47.150Z,6.90
2023-02-01T10:35:20.467Z,6.90
2023-02-01T10:38:04.041Z,6.90
2023-02-01T10:40:33.801Z,6.80
2023-02-01T10:43:04.154Z,6.80
2023-02-01T10:45:34.566Z,6.70
2023-02-01T10:48:05.682Z,6.50
2023-02-01T10:50:40.250Z,6.40
2023-02-01T10:53:15.653Z,6.30
2023-02-01T10:55:50.517Z,6.40
2023-02-01T10:58:21.235Z,6.40
2023-02-01T11:00:56.020Z,6.40
2023-02-01T11:03:37.313Z,6.50
2023-02-01T11:06:13.524Z,6.50
2023-02-01T11:08:49.685Z,6.60
2023-02-01T11:11:19.489Z,6.80
2023-02-01T11:13:56.307Z,6.90
2023-02-01T11:16:32.459Z,7.00
2023-02-01T11:19:01.444Z,6.90
2023-02-01T11:21:30.604Z,6.80
2023-02-01T11:24:04.694Z,6.70
2023-02-01T11:26:34.637Z,6.60
2023-02-01T11:29:06.833Z,6.50
2023-02-01T11:31:37.154Z,6.40
2023-02-01T11:34:11.250Z,6.40
2023-02-01T11:36:43.367Z,6.40
2023-02-01T11:43:53.832Z,6.50
2023-02-01T11:46:28.047Z,6.60
2023-02-01T11:48:57.902Z,6.80
2023-02-01T11:51:39.829Z,7.00
2023-02-01T11:54:18.791Z,7.10
2023-02-01T11:56:58.327Z,7.20
2023-02-01T11:59:43.092Z,7.20
2023-02-01T12:02:40.048Z,7.30
2023-02-01T12:05:24.660Z,7.30
2023-02-01T12:08:13.893Z,7.20
2023-02-01T12:10:56.115Z,7.20
2023-02-01T12:13:37.568Z,7.10
2023-02-01T12:16:21.067Z,7.10
2023-02-01T12:19:13.571Z,7.00
2023-02-01T12:22:11.250Z,7.00
2023-02-01T12:25:01.742Z,7.00
2023-02-01T12:27:53.203Z,7.20
2023-02-01T12:30:54.716Z,7.50
2023-02-01T12:33:34.682Z,7.50
2023-02-01T12:36:15.115Z,7.40
2023-02-01T12:38:57.319Z,7.30
2023-02-01T12:41:50.860Z,7.20
2023-02-01T12:44:29.524Z,7.10
2023-02-01T12:47:01.916Z,7.00
2023-02-01T12:49:42.777Z,6.80
2023-02-01T12:52:15.832Z,6.30
2023-02-01T12:54:49.697Z,5.80
2023-02-01T12:57:25.645Z,5.40
2023-02-01T13:00:23.983Z,5.10
2023-02-01T13:02:59.624Z,4.90
2023-02-01T13:05:33.801Z,4.80
2023-02-01T13:08:09.078Z,4.80
2023-02-01T13:10:42.560Z,4.80
2023-02-01T13:13:21.439Z,4.80
2023-02-01T13:15:58.274Z,4.80
2023-02-01T13:18:34.821Z,4.80
2023-02-01T13:21:09.507Z,4.90
2023-02-01T13:23:40.401Z,5.00
2023-02-01T13:26:09.152Z,5.20
2023-02-01T13:28:43.254Z,5.30
2023-02-01T13:31:47.156Z,5.50
2023-02-01T13:34:46.078Z,5.50
2023-02-01T13:37:30.563Z,5.60
2023-02-01T13:40:18.706Z,5.70
2023-02-01T13:42:52.286Z,5.80
2023-02-01T13:45:24.909Z,5.80
2023-02-01T13:47:57.382Z,5.90
2023-02-01T13:50:29.563Z,5.90
2023-02-01T13:53:02.095Z,6.00
2023-02-01T13:55:34.785Z,6.10
2023-02-01T13:58:22.868Z,6.10
2023-02-01T14:00:52.826Z,6.20
2023-02-01T14:03:23.918Z,6.20
2023-02-01T14:06:18.851Z,6.30
2023-02-01T14:09:15.199Z,6.30
2023-02-01T14:11:46.482Z,6.30
2023-02-01T14:14:49.381Z,6.30
2023-02-01T14:17:42.293Z,6.30
2023-02-01T14:20:50.101Z,6.30
2023-02-01T14:23:23.080Z,6.30
2023-02-01T14:26:18.091Z,6.30
2023-02-01T14:28:53.174Z,6.40
2023-02-01T14:31:58.008Z,6.90
2023-02-01T14:34:44.127Z,6.80
2023-02-01T14:37:15.194Z,6.60
2023-02-01T14:39:56.973Z,6.50
2023-02-01T14:42:31.449Z,6.40
2023-02-01T14:45:33.139Z,6.30
2023-02-01T14:48:35.216Z,6.20
2023-02-01T14:51:04.966Z,6.20
2023-02-01T14:53:36.969Z,6.20
2023-02-01T14:56:12.959Z,6.10
2023-02-01T14:58:47.664Z,6.10
2023-02-01T15:01:20.722Z,6.10
2023-02-01T15:04:01.661Z,6.20
2023-02-01T15:06:39.428Z,6.20
2023-02-01T15:09:12.963Z,6.20
2023-02-01T15:12:03.808Z,6.20
2023-02-01T15:14:36.477Z,6.20
2023-02-01T15:17:06.057Z,6.10
2023-02-01T15:19:34.792Z,6.10
2023-02-01T15:22:04.110Z,6.10
2023-02-01T15:24:34.229Z,6.10
2023-02-01T15:27:07.061Z,6.00
2023-02-01T15:29:37.257Z,6.00
2023-02-01T15:32:07.374Z,6.00
2023-02-01T15:34:57.111Z,6.00
2023-02-01T15:37:25.876Z,6.00
2023-02-01T15:40:23.130Z,6.00
2023-02-01T15:43:23.470Z,5.90
2023-02-01T15:47:10.003Z,5.90
2023-02-01T15:49:43.826Z,6.00
2023-02-01T15:52:43.171Z,5.90
2023-02-01T15:55:25.942Z,5.90
2023-02-01T15:57:55.262Z,6.00
2023-02-01T16:00:26.363Z,5.90
2023-02-01T16:02:57.257Z,5.90
2023-02-01T16:05:34.956Z,5.90
2023-02-01T16:08:09.200Z,5.90
2023-02-01T16:10:42.608Z,5.90
2023-02-01T16:13:11.479Z,5.90
2023-02-01T16:15:40.128Z,5.90
2023-02-01T16:18:10.645Z,5.90
2023-02-01T16:20:42.444Z,5.80
2023-02-01T16:23:12.545Z,5.80
2023-02-01T16:25:41.824Z,5.80
2023-02-01T16:28:10.566Z,5.80
2023-02-01T16:30:39.355Z,5.80
2023-02-01T16:33:08.814Z,5.80
2023-02-01T16:35:39.157Z,5.80
2023-02-01T16:38:14.333Z,5.80
2023-02-01T16:40:44.211Z,5.80
2023-02-01T16:43:15.925Z,5.90
2023-02-01T16:45:44.858Z,5.80
2023-02-01T16:48:21.636Z,5.80
2023-02-01T16:50:52.984Z,5.80
2023-02-01T16:53:24.667Z,5.80
2023-02-01T16:55:53.472Z,5.80
2023-02-01T16:58:22.923Z,5.80
2023-02-01T17:00:52.005Z,5.80
2023-02-01T17:03:22.044Z,5.80
2023-02-01T17:05:53.043Z,5.80
2023-02-01T17:08:35.526Z,5.90
2023-02-01T17:11:04.334Z,5.90
2023-02-01T17:13:32.890Z,5.90
2023-02-01T17:16:04.788Z,5.90
2023-02-01T17:18:36.547Z,5.90
2023-02-01T17:21:07.801Z,5.90
2023-02-01T17:23:38.419Z,5.90
2023-02-01T17:26:08.190Z,5.90
2023-02-01T17:28:36.857Z,5.90
2023-02-01T17:31:06.199Z,5.90
2023-02-01T17:33:37.985Z,5.90
2023-02-01T17:36:08.187Z,5.90
2023-02-01T17:38:38.364Z,5.90
2023-02-01T17:41:07.121Z,5.90
2023-02-01T17:43:36.047Z,5.90
2023-02-01T17:46:07.839Z,5.90
2023-02-01T17:48:36.516Z,5.80
2023-02-01T17:51:05.923Z,5.80
2023-02-01T17:53:35.882Z,5.80
2023-02-01T17:56:06.886Z,5.80
2023-02-01T17:58:37.707Z,5.80
2023-02-01T18:01:06.601Z,5.80
2023-02-01T18:03:36.293Z,5.70
2023-02-01T18:06:14.585Z,5.70
2023-02-01T18:08:47.187Z,5.70
2023-02-01T18:11:18.916Z,5.70
2023-02-01T18:13:59.832Z,5.60
2023-02-01T18:16:41.927Z,5.60
2023-02-01T18:19:10.698Z,5.70
2023-02-01T18:21:43.002Z,5.70
2023-02-01T18:24:14.784Z,5.80
2023-02-01T18:26:45.192Z,5.80
2023-02-01T18:29:13.773Z,5.80
2023-02-01T18:31:48.447Z,5.80
2023-02-01T18:34:22.490Z,5.80
2023-02-01T18:37:17.354Z,5.80
2023-02-01T18:39:45.823Z,5.80
2023-02-01T18:42:16.127Z,5.80
2023-02-01T18:44:44.655Z,5.80
2023-02-01T18:47:13.286Z,5.80
2023-02-01T18:50:07.483Z,5.80
2023-02-01T18:53:02.102Z,5.80
2023-02-01T18:55:32.591Z,5.90
2023-02-01T18:58:04.565Z,5.90
2023-02-01T19:00:34.089Z,5.90
2023-02-01T19:03:03.134Z,5.90
2023-02-01T19:05:33.226Z,5.90
2023-02-01T19:08:01.967Z,5.90
2023-02-01T19:10:30.845Z,5.90
2023-02-01T19:12:59.475Z,5.90
2023-02-01T19:15:30.562Z,5.80
2023-02-01T19:17:59.468Z,5.80
2023-02-01T19:20:28.960Z,5.70
2023-02-01T19:23:02.606Z,5.60
2023-02-01T19:25:31.334Z,5.60
2023-02-01T19:28:00.055Z,5.60
2023-02-01T19:30:30.378Z,5.60
2023-02-01T19:32:59.026Z,5.50
2023-02-01T19:35:27.725Z,5.50
2023-02-01T19:37:56.499Z,5.40
2023-02-01T19:40:27.051Z,5.40
2023-02-01T19:43:21.390Z,5.30
2023-02-01T19:46:22.838Z,5.30
2023-02-01T19:48:51.495Z,5.30
2023-02-01T19:51:20.026Z,5.40
2023-02-01T19:53:48.749Z,5.40
2023-02-01T19:56:17.290Z,5.50
2023-02-01T19:58:45.993Z,5.50
2023-02-01T20:01:15.452Z,5.60
2023-02-01T20:03:45.590Z,5.60
2023-02-01T20:06:16.125Z,5.60
2023-02-01T20:08:45.216Z,5.60
2023-02-01T20:11:13.808Z,5.60
2023-02-01T20:13:42.408Z,5.60
2023-02-01T20:16:17.089Z,5.70
2023-02-01T20:18:47.188Z,5.60
2023-02-01T20:21:16.450Z,5.70
2023-02-01T20:23:47.597Z,5.70
2023-02-01T20:26:17.251Z,5.70
2023-02-01T20:29:37.150Z,5.60
2023-02-01T20:32:05.807Z,5.60
2023-02-01T20:34:35.902Z,5.50
2023-02-01T20:37:04.561Z,5.40
2023-02-01T20:39:33.240Z,5.40
2023-02-01T20:42:01.863Z,5.40
2023-02-01T20:44:30.460Z,5.40
2023-02-01T20:46:59.687Z,5.40
2023-02-01T20:50:19.157Z,5.40
2023-02-01T20:52:49.081Z,5.40
2023-02-01T20:55:17.802Z,5.40
2023-02-01T20:57:46.416Z,5.40
2023-02-01T21:00:16.659Z,5.40
2023-02-01T21:02:45.336Z,5.40
2023-02-01T21:05:13.949Z,5.30
2023-02-01T21:07:42.602Z,5.20
2023-02-01T21:10:13.676Z,5.10
2023-02-01T21:12:42.514Z,5.00
2023-02-01T21:15:12.337Z,5.00
2023-02-01T21:17:41.110Z,4.90
2023-02-01T21:20:10.966Z,4.80
2023-02-01T21:22:39.582Z,4.80
2023-02-01T21:25:09.238Z,4.70
2023-02-01T21:27:39.363Z,4.70
2023-02-01T21:30:09.186Z,4.60
2023-02-01T21:32:37.826Z,4.50
2023-02-01T21:35:08.280Z,4.50
2023-02-01T21:37:36.897Z,4.50
2023-02-01T21:40:06.078Z,4.50
2023-02-01T21:42:34.924Z,4.40
2023-02-01T21:45:05.641Z,4.50
2023-02-01T21:47:34.200Z,4.50
2023-02-01T21:50:02.957Z,4.50
2023-02-01T21:52:35.122Z,4.40
2023-02-01T21:55:04.189Z,4.30
2023-02-01T21:57:32.862Z,4.40
2023-02-01T22:00:01.612Z,4.40
2023-02-01T22:02:35.522Z,4.40
2023-02-01T22:05:05.375Z,4.40
2023-02-01T22:07:36.105Z,4.40
2023-02-01T22:10:06.545Z,4.40
2023-02-01T22:12:35.276Z,4.40
2023-02-01T22:15:03.991Z,4.50
2023-02-01T22:17:34.077Z,4.50
2023-02-01T22:20:02.800Z,4.50
2023-02-01T22:22:34.120Z,4.50
2023-02-01T22:25:07.807Z,4.50
2023-02-01T22:28:31.745Z,4.60
2023-02-01T22:30:25.226Z,4.60
2023-02-01T22:32:55.364Z,4.70
2023-02-01T22:35:24.536Z,4.70
2023-02-01T22:37:53.782Z,4.90
2023-02-01T22:40:22.601Z,4.90
2023-02-01T22:42:52.286Z,4.90
2023-02-01T22:45:21.091Z,5.00
2023-02-01T22:47:50.451Z,5.00
2023-02-01T22:50:22.152Z,5.10
2023-02-01T22:52:50.867Z,5.20
2023-02-01T22:55:19.712Z,5.20
2023-02-01T22:57:48.461Z,5.30
2023-02-01T23:00:17.473Z,5.40
2023-02-01T23:02:46.412Z,5.40
2023-02-01T23:05:15.454Z,5.40
2023-02-01T23:07:48.921Z,5.50
2023-02-01T23:10:18.377Z,5.50
2023-02-01T23:12:47.166Z,5.60
2023-02-01T23:15:17.480Z,5.60
2023-02-01T23:17:46.801Z,5.60
2023-02-01T23:20:18.481Z,5.70
2023-02-01T23:22:50.316Z,5.70
2023-02-01T23:25:20.293Z,5.70
2023-02-01T23:27:49.408Z,5.70
2023-02-01T23:30:18.235Z,5.80
2023-02-01T23:32:47.038Z,5.80
2023-02-01T23:35:16.056Z,5.80
2023-02-01T23:37:44.806Z,5.80
2023-02-01T23:40:15.375Z,5.70
2023-02-01T23:43:04.304Z,5.70
2023-02-01T23:45:33.008Z,5.70
2023-02-01T23:48:01.873Z,5.60
2023-02-01T23:50:30.575Z,5.60
2023-02-01T23:52:59.221Z,5.60
2023-02-01T23:55:29.382Z,5.60
2023-02-01T23:57:58.139Z,5.60
